Time;durP1;ratioP1;P1;durP2;ratioP2;P2;SDS_P1;SDS_P2;PMS_P1;PMS_P2;Temp;Humidity;BMP_temperature;BMP_pressure;BME280_temperature;BME280_humidity;BME280_pressure;Samples;Min_cycle;Max_cycle;Signal;HPM_P1;HPM_P2
2022/09/25 00:01:21;;;;;;;;;;;;;;;11.25;65.85;100688.66;1654577;86;20149;-78
2022/09/25 00:04:06;;;;;;;;;;;;;;;11.19;65.77;100694.79;1644725;85;20233;-78
2022/09/25 00:06:50;;;;;;;;;;;;;;;11.13;65.80;100687.13;1653053;86;20235;-78
2022/09/25 00:09:35;;;;;;;;;;;;;;;11.08;65.75;100686.80;1664105;86;20439;-78
2022/09/25 00:12:19;;;;;;;;;;;;;;;11.00;65.91;100688.21;1622587;86;20127;-78
2022/09/25 00:15:05;;;;;;;;;;;;;;;10.92;65.87;100687.48;1657283;86;20451;-78
2022/09/25 00:17:49;;;;;;;;;;;;;;;10.84;65.96;100679.88;1643437;86;20157;-78
2022/09/25 00:20:36;;;;;;;;;;;;;;;10.77;65.93;100679.55;1629814;86;20197;-78
2022/09/25 00:23:20;;;;;;;;;;;;;;;10.72;66.01;100680.06;1645490;86;21362;-78
2022/09/25 00:26:06;;;;;;;;;;;;;;;10.69;66.00;100674.09;1650031;85;20497;-78
2022/09/25 00:28:52;;;;;;;;;;;;;;;10.65;66.00;100673.72;1665180;86;20164;-78
2022/09/25 00:31:36;;;;;;;;;;;;;;;10.58;65.97;100671.66;1633952;86;20210;-78
2022/09/25 00:34:21;;;;;;;;;;;;;;;10.53;66.12;100671.73;1646914;86;20203;-78
2022/09/25 00:37:06;;;;;;;;;;;;;;;10.48;66.13;100676.11;1624596;86;20227;-78
2022/09/25 00:39:50;;;;;;;;;;;;;;;10.42;66.20;100674.05;1651650;86;20276;-77
2022/09/25 00:42:35;;;;;;;;;;;;;;;10.34;66.14;100673.34;1655453;86;20586;-77
2022/09/25 00:45:20;;;;;;;;;;;;;;;10.31;66.13;100675.53;1631231;86;20188;-78
2022/09/25 00:48:07;;;;;;;;;;;;;;;10.26;66.15;100672.15;1630917;86;20209;-78
2022/09/25 00:50:54;;;;;;;;;;;;;;;10.19;66.05;100669.20;1617191;86;20627;-79
2022/09/25 00:53:40;;;;;;;;;;;;;;;10.12;66.12;100659.82;1635643;86;20573;-79
2022/09/25 00:56:25;;;;;;;;;;;;;;;10.04;66.00;100664.23;1640732;84;20175;-78
2022/09/25 00:59:13;;;;;;;;;;;;;;;9.95;66.13;100659.60;1630202;86;20202;-78
2022/09/25 01:01:58;;;;;;;;;;;;;;;9.93;66.24;100658.77;1646172;86;20208;-77
2022/09/25 01:04:45;;;;;;;;;;;;;;;9.89;66.32;100657.09;1640623;86;20182;-77
2022/09/25 01:07:31;;;;;;;;;;;;;;;9.90;66.40;100658.80;1641409;86;20201;-77
2022/09/25 01:10:18;;;;;;;;;;;;;;;9.88;66.38;100660.55;1657581;86;20602;-77
2022/09/25 01:13:05;;;;;;;;;;;;;;;9.86;66.29;100661.03;1624179;86;20486;-77
2022/09/25 01:16:13;;;;;;;;;;;;;;;9.81;66.32;100660.23;1593678;86;5001454;-77
2022/09/25 01:19:19;;;;;;;;;;;;;;;9.82;66.37;100658.07;1640390;85;20179;-77
2022/09/25 01:22:33;;;;;;;;;;;;;;;9.82;66.41;100664.53;1651962;86;20272;-77
2022/09/25 01:25:21;;;;;;;;;;;;;;;9.78;66.38;100656.40;1639676;86;20483;-77
2022/09/25 01:28:40;;;;;;;;;;;;;;;9.76;66.46;100652.12;1662154;86;20434;-78
2022/09/25 01:31:43;;;;;;;;;;;;;;;9.74;66.45;100652.58;1653078;85;20139;-78
2022/09/25 01:34:43;;;;;;;;;;;;;;;9.72;66.60;100650.02;1595678;88;20212;-78
2022/09/25 01:37:40;;;;;;;;;;;;;;;9.72;66.57;100646.14;1657421;86;21023;-78
2022/09/25 01:40:29;;;;;;;;;;;;;;;9.72;66.59;100649.16;1649850;86;20619;-77
2022/09/25 01:43:20;;;;;;;;;;;;;;;9.67;66.59;100647.92;1645928;86;20266;-77
2022/09/25 01:46:14;;;;;;;;;;;;;;;9.64;66.68;100645.38;1640212;86;20326;-77
2022/09/25 01:49:02;;;;;;;;;;;;;;;9.62;66.72;100644.54;1636381;86;20341;-77
2022/09/25 01:51:52;;;;;;;;;;;;;;;9.59;66.68;100649.73;1630641;86;20217;-77
2022/09/25 01:54:41;;;;;;;;;;;;;;;9.59;66.69;100654.90;1635248;86;20515;-77
2022/09/25 01:57:36;;;;;;;;;;;;;;;9.57;66.67;100655.36;1618723;87;20185;-78
2022/09/25 02:00:24;;;;;;;;;;;;;;;9.53;66.64;100657.11;1631162;85;20193;-78
2022/09/25 02:03:15;;;;;;;;;;;;;;;9.51;66.67;100657.56;1620909;86;20191;-78
2022/09/25 02:06:02;;;;;;;;;;;;;;;9.48;66.68;100660.62;1655096;86;20621;-78
2022/09/25 02:08:49;;;;;;;;;;;;;;;9.46;66.65;100667.08;1658748;86;20274;-78
2022/09/25 02:11:41;;;;;;;;;;;;;;;9.45;66.65;100665.38;1653887;84;20215;-78
2022/09/25 02:14:35;;;;;;;;;;;;;;;9.43;66.68;100659.81;1667970;84;20265;-78
2022/09/25 02:20:31;;;;;;;;;;;;;;;9.36;66.70;100662.89;1661597;84;20615;-78
2022/09/25 02:23:24;;;;;;;;;;;;;;;9.30;66.78;100666.85;1684168;84;20188;-77
2022/09/25 02:26:13;;;;;;;;;;;;;;;9.27;66.78;100660.43;1679690;84;20213;-77
2022/09/25 02:28:58;;;;;;;;;;;;;;;9.24;66.89;100657.87;1675121;84;20187;-77
2022/09/25 02:31:55;;;;;;;;;;;;;;;9.20;66.94;100655.77;1670760;84;20219;-77
2022/09/25 02:34:40;;;;;;;;;;;;;;;9.17;66.92;100657.08;1676520;84;20220;-77
2022/09/25 02:37:26;;;;;;;;;;;;;;;9.15;66.91;100649.80;1675324;84;20601;-77
2022/09/25 02:40:10;;;;;;;;;;;;;;;9.16;66.95;100655.38;1687125;84;20130;-77
2022/09/25 02:43:26;;;;;;;;;;;;;;;9.15;66.94;100652.38;1667396;84;20567;-77
2022/09/25 02:46:38;;;;;;;;;;;;;;;9.14;66.92;100649.81;1676299;84;20189;-77
2022/09/25 02:49:32;;;;;;;;;;;;;;;9.14;67.03;100652.39;1664345;84;20197;-77
2022/09/25 02:52:29;;;;;;;;;;;;;;;9.13;67.10;100650.67;1659422;84;20184;-77
2022/09/25 02:55:20;;;;;;;;;;;;;;;9.10;67.17;100641.67;1643541;84;20198;-77
2022/09/25 02:58:15;;;;;;;;;;;;;;;9.11;67.25;100643.39;1693519;84;20499;-77
2022/09/25 03:01:01;;;;;;;;;;;;;;;9.13;67.23;100641.21;1689872;83;20228;-77
2022/09/25 03:03:48;;;;;;;;;;;;;;;9.14;67.21;100648.08;1646740;84;20231;-77
2022/09/25 03:06:32;;;;;;;;;;;;;;;9.18;67.22;100654.92;1676716;84;20225;-78
2022/09/25 03:09:19;;;;;;;;;;;;;;;9.19;67.20;100648.89;1662585;84;20500;-77
2022/09/25 03:12:04;;;;;;;;;;;;;;;9.22;67.22;100646.28;1674154;84;20182;-77
2022/09/25 03:14:49;;;;;;;;;;;;;;;9.22;67.20;100643.70;1669088;84;20150;-77
2022/09/25 03:17:33;;;;;;;;;;;;;;;9.23;67.22;100647.14;1659089;84;20212;-77
2022/09/25 03:20:18;;;;;;;;;;;;;;;9.19;67.28;100643.73;1666890;84;20440;-77
2022/09/25 03:23:03;;;;;;;;;;;;;;;9.20;67.34;100642.86;1669901;84;20201;-77
2022/09/25 03:25:47;;;;;;;;;;;;;;;9.22;67.38;100643.70;1680018;84;20209;-77
2022/09/25 03:28:33;;;;;;;;;;;;;;;9.23;67.41;100642.83;1683294;84;20216;-77
2022/09/25 03:31:17;;;;;;;;;;;;;;;9.21;67.41;100639.84;1669185;84;20139;-77
2022/09/25 03:34:02;;;;;;;;;;;;;;;9.21;67.44;100635.98;1662840;84;20112;-77
2022/09/25 03:36:47;;;;;;;;;;;;;;;9.26;67.55;100638.08;1693334;84;37854;-77
2022/09/25 03:39:32;;;;;;;;;;;;;;;9.28;67.49;100641.06;1671659;84;20450;-77
2022/09/25 03:42:18;;;;;;;;;;;;;;;9.28;67.45;100639.77;1653913;84;20226;-77
2022/09/25 03:45:05;;;;;;;;;;;;;;;9.26;67.47;100636.36;1681970;84;20177;-77
2022/09/25 03:47:50;;;;;;;;;;;;;;;9.26;67.51;100635.50;1658055;84;20181;-77
2022/09/25 03:50:34;;;;;;;;;;;;;;;9.26;67.61;100627.76;1672031;84;20256;-77
2022/09/25 03:53:19;;;;;;;;;;;;;;;9.29;67.69;100632.89;1669108;84;20200;-77
2022/09/25 03:56:06;;;;;;;;;;;;;;;9.31;67.76;100633.73;1677397;84;20517;-77
2022/09/25 03:58:53;;;;;;;;;;;;;;;9.32;67.77;100631.56;1659821;84;20269;-78
2022/09/25 04:01:38;;;;;;;;;;;;;;;9.33;67.80;100628.11;1687549;84;20182;-77
2022/09/25 04:04:23;;;;;;;;;;;;;;;9.34;67.78;100629.83;1677782;84;20174;-78
2022/09/25 04:07:09;;;;;;;;;;;;;;;9.36;67.87;100631.09;1666639;84;20214;-78
2022/09/25 04:09:53;;;;;;;;;;;;;;;9.36;67.84;100631.92;1673362;84;20509;-78
2022/09/25 04:12:38;;;;;;;;;;;;;;;9.36;67.83;100635.79;1664766;84;20235;-78
2022/09/25 04:15:23;;;;;;;;;;;;;;;9.35;67.93;100634.55;1663772;84;20509;-78
2022/09/25 04:18:08;;;;;;;;;;;;;;;9.36;67.88;100634.97;1676408;84;20173;-78
2022/09/25 04:20:52;;;;;;;;;;;;;;;9.34;67.95;100638.00;1686836;84;20308;-78
2022/09/25 04:23:37;;;;;;;;;;;;;;;9.31;67.96;100643.19;1663724;84;20207;-78
2022/09/25 04:26:22;;;;;;;;;;;;;;;9.32;68.09;100643.61;1666775;84;20200;-78
2022/09/25 04:29:07;;;;;;;;;;;;;;;9.32;68.09;100642.32;1691529;84;20191;-78
2022/09/25 04:34:55;;;;;;;;;;;;;;;9.36;68.16;100644.83;1675092;84;20609;-78
2022/09/25 04:37:40;;;;;;;;;;;;;;;9.36;68.18;100639.66;1671138;84;21280;-77
2022/09/25 04:40:25;;;;;;;;;;;;;;;9.39;68.21;100642.65;1687515;84;20196;-78
2022/09/25 04:43:09;;;;;;;;;;;;;;;9.40;68.28;100645.65;1670467;84;20172;-78
2022/09/25 04:45:54;;;;;;;;;;;;;;;9.43;68.26;100645.61;1676617;84;20157;-78
2022/09/25 04:48:39;;;;;;;;;;;;;;;9.45;68.28;100641.29;1668375;84;20190;-78
2022/09/25 04:51:24;;;;;;;;;;;;;;;9.47;68.33;100638.26;1664508;84;20198;-78
2022/09/25 04:54:08;;;;;;;;;;;;;;;9.49;68.37;100640.39;1664107;84;20220;-78
2022/09/25 04:56:54;;;;;;;;;;;;;;;9.53;68.42;100642.92;1656685;84;20187;-78
2022/09/25 04:59:38;;;;;;;;;;;;;;;9.54;68.41;100639.46;1678991;84;20217;-78
2022/09/25 05:02:27;;;;;;;;;;;;;;;9.55;68.46;100638.59;1649627;84;20209;-78
2022/09/25 05:05:12;;;;;;;;;;;;;;;9.56;68.44;100635.58;1617206;87;20204;-78
2022/09/25 05:08:01;;;;;;;;;;;;;;;9.56;68.48;100640.30;1617422;87;20442;-79
2022/09/25 05:10:45;;;;;;;;;;;;;;;9.57;68.50;100639.43;1660152;84;20544;-78
2022/09/25 05:13:30;;;;;;;;;;;;;;;9.57;68.47;100637.28;1668029;84;20229;-78
2022/09/25 05:16:15;;;;;;;;;;;;;;;9.53;68.47;100642.06;1666829;84;20507;-78
2022/09/25 05:19:00;;;;;;;;;;;;;;;9.46;68.50;100636.55;1668265;84;21284;-78
2022/09/25 05:21:44;;;;;;;;;;;;;;;9.43;68.57;100645.61;1685238;84;20210;-78
2022/09/25 05:24:30;;;;;;;;;;;;;;;9.40;68.64;100640.05;1659636;84;20183;-78
2022/09/25 05:27:14;;;;;;;;;;;;;;;9.40;68.74;100640.05;1650268;84;20189;-79
2022/09/25 05:29:59;;;;;;;;;;;;;;;9.46;68.83;100646.44;1672074;84;20192;-78
2022/09/25 05:32:48;;;;;;;;;;;;;;;9.48;68.78;100646.42;1661467;84;20226;-78
2022/09/25 05:35:33;;;;;;;;;;;;;;;9.46;68.81;100649.45;1644168;85;20174;-78
2022/09/25 05:38:18;;;;;;;;;;;;;;;9.49;68.83;100643.82;1664015;84;20176;-77
2022/09/25 05:41:04;;;;;;;;;;;;;;;9.55;68.83;100646.34;1660760;84;20533;-78
2022/09/25 05:43:49;;;;;;;;;;;;;;;9.60;68.88;100648.87;1660388;84;20308;-78
2022/09/25 05:46:34;;;;;;;;;;;;;;;9.66;68.93;100646.66;1672203;84;21090;-78
2022/09/25 05:49:19;;;;;;;;;;;;;;;9.67;68.88;100644.48;1676791;84;20220;-78
2022/09/25 05:52:03;;;;;;;;;;;;;;;9.72;68.90;100653.89;1674237;84;20164;-78
2022/09/25 05:54:48;;;;;;;;;;;;;;;9.75;68.90;100655.58;1680746;84;20228;-78
2022/09/25 05:57:34;;;;;;;;;;;;;;;9.77;68.99;100653.40;1672761;84;20280;-78
2022/09/25 06:00:20;;;;;;;;;;;;;;;9.81;69.09;100655.08;1690961;84;20192;-79
2022/09/25 06:03:04;;;;;;;;;;;;;;;9.85;69.10;100650.28;1660087;84;20621;-79
2022/09/25 06:05:49;;;;;;;;;;;;;;;9.91;69.12;100654.05;1672609;84;20136;-80
2022/09/25 06:08:34;;;;;;;;;;;;;;;9.92;69.15;100649.30;1671380;84;20227;-80
2022/09/25 06:11:19;;;;;;;;;;;;;;;9.94;69.18;100651.44;1667882;84;20235;-80
2022/09/25 06:14:04;;;;;;;;;;;;;;;9.98;69.20;100646.23;1659997;84;20217;-80
2022/09/25 06:16:49;;;;;;;;;;;;;;;10.04;69.19;100639.69;1661286;84;20524;-79
2022/09/25 06:19:34;;;;;;;;;;;;;;;10.11;69.11;100644.75;1660207;84;20590;-79
2022/09/25 06:22:18;;;;;;;;;;;;;;;10.16;69.21;100640.37;1662137;84;20227;-79
2022/09/25 06:25:03;;;;;;;;;;;;;;;10.21;69.23;100646.38;1651071;84;20266;-79
2022/09/25 06:27:55;;;;;;;;;;;;;;;10.25;69.23;100640.72;1660038;84;20181;-80
2022/09/25 06:30:39;;;;;;;;;;;;;;;10.30;69.24;100641.95;1665898;84;20179;-80
2022/09/25 06:33:24;;;;;;;;;;;;;;;10.34;69.35;100642.33;1658662;84;20217;-80
2022/09/25 06:36:09;;;;;;;;;;;;;;;10.41;69.31;100642.62;1663058;84;20176;-80
2022/09/25 06:38:54;;;;;;;;;;;;;;;10.47;69.41;100644.67;1666083;84;20482;-79
2022/09/25 06:41:40;;;;;;;;;;;;;;;10.53;69.44;100645.88;1667222;84;20634;-79
2022/09/25 06:44:25;;;;;;;;;;;;;;;10.60;69.37;100641.47;1671302;84;20506;-78
2022/09/25 06:47:12;;;;;;;;;;;;;;;10.67;69.38;100647.39;1661852;84;20196;-78
2022/09/25 06:49:56;;;;;;;;;;;;;;;10.71;69.41;100646.47;1658265;84;20177;-79
2022/09/25 06:52:42;;;;;;;;;;;;;;;10.73;69.42;100647.30;1659028;85;20229;-79
2022/09/25 06:55:29;;;;;;;;;;;;;;;10.75;69.43;100638.64;1647731;86;20205;-79
2022/09/25 06:58:16;;;;;;;;;;;;;;;10.80;69.41;100641.15;1635281;87;20194;-79
2022/09/25 07:01:01;;;;;;;;;;;;;;;10.84;69.40;100640.22;1639393;85;20237;-79
2022/09/25 07:03:47;;;;;;;;;;;;;;;10.88;69.48;100638.84;1647090;85;20187;-78
2022/09/25 07:06:33;;;;;;;;;;;;;;;10.92;69.40;100637.03;1656455;86;20465;-79
2022/09/25 07:09:18;;;;;;;;;;;;;;;10.96;69.53;100629.63;1658717;86;20202;-79
2022/09/25 07:12:05;;;;;;;;;;;;;;;10.94;69.51;100635.27;1660378;84;20374;-80
2022/09/25 07:14:49;;;;;;;;;;;;;;;10.94;69.61;100637.86;1658750;85;20207;-80
2022/09/25 07:17:34;;;;;;;;;;;;;;;10.95;69.60;100633.10;1663694;85;20496;-80
2022/09/25 07:20:20;;;;;;;;;;;;;;;11.00;69.67;100637.76;1669359;85;20456;-80
2022/09/25 07:23:05;;;;;;;;;;;;;;;11.04;69.62;100639.41;1669391;86;20197;-79
2022/09/25 07:25:50;;;;;;;;;;;;;;;11.10;69.67;100635.86;1664541;85;20200;-79
2022/09/25 07:28:36;;;;;;;;;;;;;;;11.16;69.79;100638.34;1668249;86;20192;-79
2022/09/25 07:31:24;;;;;;;;;;;;;;;11.20;69.71;100638.27;1642341;86;20226;-79
2022/09/25 07:34:10;;;;;;;;;;;;;;;11.28;69.67;100643.30;1642513;87;20198;-79
2022/09/25 07:36:55;;;;;;;;;;;;;;;11.35;69.77;100638.87;1648100;85;20183;-79
2022/09/25 07:39:39;;;;;;;;;;;;;;;11.39;69.72;100636.63;1669908;84;20217;-79
2022/09/25 07:42:24;;;;;;;;;;;;;;;11.46;69.75;100639.48;1667122;85;20236;-79
2022/09/25 07:45:09;;;;;;;;;;;;;;;11.55;69.67;100640.60;1669018;85;20232;-79
2022/09/25 07:47:59;;;;;;;;;;;;;;;11.63;69.77;100638.72;1673664;84;20181;-79
2022/09/25 07:50:44;;;;;;;;;;;;;;;11.72;69.79;100637.24;1646199;85;20222;-79
2022/09/25 07:53:29;;;;;;;;;;;;;;;11.80;69.71;100634.53;1623192;87;20645;-79
2022/09/25 07:56:13;;;;;;;;;;;;;;;11.89;69.74;100635.19;1660078;86;20186;-79
2022/09/25 07:58:58;;;;;;;;;;;;;;;11.98;69.77;100626.78;1637775;86;20141;-79
2022/09/25 08:01:43;;;;;;;;;;;;;;;12.06;69.82;100630.06;1621543;87;20218;-80
2022/09/25 08:04:28;;;;;;;;;;;;;;;12.14;69.87;100621.67;1641595;87;20190;-80
2022/09/25 08:07:13;;;;;;;;;;;;;;;12.23;69.85;100617.14;1638332;87;20193;-80
2022/09/25 08:09:57;;;;;;;;;;;;;;;12.29;69.84;100612.70;1642204;87;20136;-80
2022/09/25 08:12:42;;;;;;;;;;;;;;;12.36;69.85;100614.27;1626161;86;20201;-80
2022/09/25 08:15:27;;;;;;;;;;;;;;;12.44;69.70;100613.64;1650916;86;20166;-80
2022/09/25 08:18:11;;;;;;;;;;;;;;;12.52;69.78;100615.14;1631937;86;20207;-80
2022/09/25 08:21:04;;;;;;;;;;;;;;;12.59;69.77;100608.91;1667096;85;20184;-80
2022/09/25 08:23:50;;;;;;;;;;;;;;;12.67;69.86;100613.06;1670532;85;20527;-80
2022/09/25 08:26:35;;;;;;;;;;;;;;;12.73;69.74;100616.36;1654059;86;20189;-80
2022/09/25 08:29:20;;;;;;;;;;;;;;;12.81;69.74;100618.77;1652582;86;20187;-80
2022/09/25 08:32:04;;;;;;;;;;;;;;;12.86;69.75;100615.61;1635644;86;20160;-80
2022/09/25 08:34:49;;;;;;;;;;;;;;;12.93;69.81;100615.86;1636533;86;20198;-80
2022/09/25 08:37:33;;;;;;;;;;;;;;;13.03;69.66;100609.95;1637864;86;20202;-80
2022/09/25 08:40:20;;;;;;;;;;;;;;;13.16;69.64;100603.14;1657970;84;20189;-79
2022/09/25 08:43:07;;;;;;;;;;;;;;;13.36;69.73;100608.24;1640950;86;20559;-79
2022/09/25 08:49:08;;;;;;;;;;;;;;;13.91;69.38;100611.39;1652261;85;20563;-79
2022/09/25 08:51:56;;;;;;;;;;;;;;;14.12;69.07;100612.02;1651541;86;20228;-79
2022/09/25 08:54:41;;;;;;;;;;;;;;;14.30;69.16;100609.30;1657810;85;20141;-79
2022/09/25 08:57:39;;;;;;;;;;;;;;;14.47;69.12;100608.80;1652329;84;20191;-79
2022/09/25 09:00:23;;;;;;;;;;;;;;;14.60;69.01;100607.93;1649404;86;20233;-79
2022/09/25 09:03:09;;;;;;;;;;;;;;;14.71;68.99;100603.23;1658118;86;20181;-79
2022/09/25 09:06:04;;;;;;;;;;;;;;;14.80;68.84;100602.47;1656384;86;20472;-79
2022/09/25 09:08:52;;;;;;;;;;;;;;;14.86;68.87;100602.72;1661517;86;20538;-80
2022/09/25 09:11:46;;;;;;;;;;;;;;;14.93;68.82;100600.75;1657140;86;20210;-79
2022/09/25 09:14:33;;;;;;;;;;;;;;;14.97;68.66;100598.00;1651095;86;20181;-79
2022/09/25 09:17:24;;;;;;;;;;;;;;;14.98;68.57;100603.61;1644374;86;20427;-79
2022/09/25 09:20:18;;;;;;;;;;;;;;;15.00;68.34;100604.41;1645021;85;20210;-79
2022/09/25 09:23:04;;;;;;;;;;;;;;;14.97;68.45;100596.70;1650244;86;20226;-79
2022/09/25 09:26:04;;;;;;;;;;;;;;;15.01;68.51;100592.23;1653309;86;20210;-79
2022/09/25 09:28:59;;;;;;;;;;;;;;;15.22;68.79;100595.36;1643425;87;20185;-79
2022/09/25 09:31:48;;;;;;;;;;;;;;;15.46;68.67;100594.48;1633472;86;20177;-79
2022/09/25 09:35:09;;;;;;;;;;;;;;;15.65;68.27;100586.00;1623780;87;20618;-79
2022/09/25 09:38:09;;;;;;;;;;;;;;;15.80;68.14;100585.42;1648500;86;20198;-79
2022/09/25 09:41:03;;;;;;;;;;;;;;;15.88;67.96;100584.23;1650189;86;20226;-80
2022/09/25 09:44:04;;;;;;;;;;;;;;;15.94;67.93;100578.38;1641931;87;20210;-80
2022/09/25 09:47:07;;;;;;;;;;;;;;;15.97;67.88;100583.48;1650208;86;20191;-80
2022/09/25 09:50:18;;;;;;;;;;;;;;;15.94;67.71;100582.30;1639865;86;20435;-80
2022/09/25 09:53:12;;;;;;;;;;;;;;;15.88;67.81;100581.62;1628437;87;20211;-79
2022/09/25 09:56:00;;;;;;;;;;;;;;;15.86;67.75;100578.67;1655293;86;20237;-79
2022/09/25 09:58:59;;;;;;;;;;;;;;;15.83;67.82;100574.88;1647425;86;20209;-79
2022/09/25 10:01:48;;;;;;;;;;;;;;;15.81;67.62;100576.23;1650610;86;20614;-79
2022/09/25 10:04:37;;;;;;;;;;;;;;;15.80;67.65;100573.23;1664755;86;20524;-79
2022/09/25 10:07:23;;;;;;;;;;;;;;;15.80;67.51;100573.23;1662585;86;20627;-79
2022/09/25 10:10:15;;;;;;;;;;;;;;;15.81;67.54;100571.48;1638880;86;20201;-80
2022/09/25 10:13:05;;;;;;;;;;;;;;;15.82;67.58;100562.75;1644481;86;20224;-80
2022/09/25 10:15:52;;;;;;;;;;;;;;;15.82;67.41;100558.84;1660921;86;20193;-80
2022/09/25 10:19:03;;;;;;;;;;;;;;;15.83;67.41;100561.84;1650076;86;20184;-80
2022/09/25 10:21:57;;;;;;;;;;;;;;;15.83;67.37;100555.32;1661034;85;20186;-80
2022/09/25 10:25:02;;;;;;;;;;;;;;;15.83;67.36;100561.39;1658089;85;20187;-80
2022/09/25 10:27:48;;;;;;;;;;;;;;;15.83;67.26;100556.63;1640193;86;21109;-80
2022/09/25 10:30:33;;;;;;;;;;;;;;;15.80;67.21;100549.77;1644435;86;20321;-80
2022/09/25 10:33:25;;;;;;;;;;;;;;;15.81;67.32;100551.47;1666454;85;20222;-80
2022/09/25 10:36:10;;;;;;;;;;;;;;;15.83;67.25;100547.50;1669578;84;20210;-80
2022/09/25 10:38:55;;;;;;;;;;;;;;;15.85;67.17;100544.38;1661091;84;20198;-80
2022/09/25 10:41:41;;;;;;;;;;;;;;;15.91;67.17;100544.59;1662234;84;20213;-80
2022/09/25 10:44:34;;;;;;;;;;;;;;;15.94;67.06;100540.56;1663496;85;20245;-80
2022/09/25 10:50:26;;;;;;;;;;;;;;;15.97;67.07;100537.38;1648841;86;20536;-79
2022/09/25 10:53:32;;;;;;;;;;;;;;;16.00;66.86;100535.11;1662892;84;20332;-80
2022/09/25 10:56:34;;;;;;;;;;;;;;;16.01;66.76;100535.50;1651069;84;20187;-79
2022/09/25 10:59:20;;;;;;;;;;;;;;;16.02;66.77;100537.20;1663517;84;20231;-79
2022/09/25 11:02:10;;;;;;;;;;;;;;;16.00;66.69;100533.80;1660435;84;20142;-79
2022/09/25 11:04:56;;;;;;;;;;;;;;;16.00;66.61;100531.20;1662525;84;20210;-79
2022/09/25 11:07:51;;;;;;;;;;;;;;;16.01;66.43;100532.44;1664694;84;20179;-79
2022/09/25 11:10:35;;;;;;;;;;;;;;;15.99;66.15;100525.59;1670618;84;20176;-79
2022/09/25 11:13:24;;;;;;;;;;;;;;;15.97;65.79;100519.58;1665833;84;20157;-79
2022/09/25 11:16:10;;;;;;;;;;;;;;;15.97;66.33;100522.19;1663755;84;20237;-79
2022/09/25 11:19:13;;;;;;;;;;;;;;;16.01;66.28;100514.19;1652297;85;20505;-79
2022/09/25 11:22:03;;;;;;;;;;;;;;;16.10;66.17;100517.73;1644452;85;20204;-79
2022/09/25 11:25:10;;;;;;;;;;;;;;;16.16;65.89;100522.67;1642483;85;20580;-79
2022/09/25 11:28:03;;;;;;;;;;;;;;;16.22;65.97;100521.57;1643128;85;20614;-79
2022/09/25 11:31:18;;;;;;;;;;;;;;;16.34;65.84;100518.47;1642791;85;20237;-79
2022/09/25 11:34:26;;;;;;;;;;;;;;;16.41;65.74;100518.61;1646649;85;20217;-79
2022/09/25 11:37:20;;;;;;;;;;;;;;;16.49;65.76;100516.98;1651452;85;20151;-79
2022/09/25 11:43:18;;;;;;;;;;;;;;;16.66;65.66;100510.59;1653048;85;20229;-79
2022/09/25 11:46:22;;;;;;;;;;;;;;;16.70;65.63;100503.02;1650982;85;20222;-79
2022/09/25 11:49:14;;;;;;;;;;;;;;;16.76;65.47;100504.52;1650400;85;20158;-79
2022/09/25 11:52:25;;;;;;;;;;;;;;;16.85;65.31;100509.34;1652308;85;20474;-79
2022/09/25 11:55:33;;;;;;;;;;;;;;;16.93;65.18;100504.64;1651082;85;20457;-79
2022/09/25 11:58:22;;;;;;;;;;;;;;;17.04;65.07;100506.78;1643701;85;20214;-79
2022/09/25 12:01:26;;;;;;;;;;;;;;;17.03;64.77;100497.25;1646406;85;20185;-79
2022/09/25 12:04:38;;;;;;;;;;;;;;;17.04;63.62;100487.19;1648040;85;20126;-79
2022/09/25 12:07:33;;;;;;;;;;;;;;;17.06;64.95;100478.83;1645348;85;20205;-79
2022/09/25 12:10:24;;;;;;;;;;;;;;;17.07;64.56;100470.07;1644209;85;20204;-79
2022/09/25 12:13:30;;;;;;;;;;;;;;;17.01;63.64;100473.80;1647856;85;20265;-79
2022/09/25 12:16:27;;;;;;;;;;;;;;;16.93;64.13;100472.45;1650409;84;20173;-79
2022/09/25 12:19:22;;;;;;;;;;;;;;;16.85;64.17;100460.58;1654060;84;20199;-79
2022/09/25 12:22:28;;;;;;;;;;;;;;;16.80;64.32;100461.23;1666562;84;20197;-79
2022/09/25 12:25:50;;;;;;;;;;;;;;;16.75;64.31;100454.52;1652480;84;20220;-79
2022/09/25 12:28:47;;;;;;;;;;;;;;;16.70;64.30;100447.34;1653874;84;20456;-79
2022/09/25 12:32:03;;;;;;;;;;;;;;;16.67;64.34;100445.72;1653146;84;20950;-79
2022/09/25 12:34:57;;;;;;;;;;;;;;;16.65;64.15;100445.39;1653559;84;20152;-79
2022/09/25 12:37:45;;;;;;;;;;;;;;;16.61;63.89;100443.83;1658465;84;20213;-79
2022/09/25 12:40:43;;;;;;;;;;;;;;;16.56;63.53;100449.25;1669794;84;20630;-79
2022/09/25 12:43:35;;;;;;;;;;;;;;;16.51;63.77;100449.45;1672854;84;20501;-79
2022/09/25 12:46:36;;;;;;;;;;;;;;;16.47;63.55;100438.75;1668462;84;20192;-79
2022/09/25 12:49:36;;;;;;;;;;;;;;;16.48;63.40;100442.20;1672222;84;20212;-79
2022/09/25 12:52:27;;;;;;;;;;;;;;;16.42;62.63;100438.09;1660103;84;20192;-79
2022/09/25 12:55:17;;;;;;;;;;;;;;;16.41;63.41;100440.31;1677637;84;20178;-79
2022/09/25 12:58:17;;;;;;;;;;;;;;;16.40;63.32;100435.16;1678909;84;20581;-79
2022/09/25 13:01:10;;;;;;;;;;;;;;;16.38;63.26;100439.14;1653519;84;20194;-79
2022/09/25 13:04:08;;;;;;;;;;;;;;;16.39;62.96;100436.06;1651327;84;20220;-78
2022/09/25 13:07:12;;;;;;;;;;;;;;;16.37;62.99;100432.22;1657323;84;20222;-78
2022/09/25 13:09:57;;;;;;;;;;;;;;;16.38;62.96;100435.67;1667279;84;20152;-78
2022/09/25 13:12:42;;;;;;;;;;;;;;;16.36;62.88;100433.13;1667247;84;20598;-78
2022/09/25 13:15:32;;;;;;;;;;;;;;;16.34;62.81;100436.27;1652027;84;20214;-78
2022/09/25 13:18:22;;;;;;;;;;;;;;;16.33;62.85;100436.33;1653475;86;20203;-78
2022/09/25 13:21:30;;;;;;;;;;;;;;;16.32;62.77;100433.33;1641649;86;20233;-78
2022/09/25 13:24:17;;;;;;;;;;;;;;;16.32;62.44;100438.09;1634196;86;20207;-78
2022/09/25 13:27:03;;;;;;;;;;;;;;;16.28;62.47;100431.30;1636626;86;20201;-78
2022/09/25 13:29:54;;;;;;;;;;;;;;;16.28;62.69;100434.38;1635979;86;20239;-78
2022/09/25 13:32:41;;;;;;;;;;;;;;;16.28;62.49;100428.70;1636801;86;20203;-78
2022/09/25 13:35:26;;;;;;;;;;;;;;;16.30;62.57;100428.17;1628764;86;20635;-78
2022/09/25 13:40:41;;;;;;;;;;;;;;;16.31;62.61;100422.50;1631867;86;20187;-78
2022/09/25 13:41:10;;;;;;;;;;;;;;;16.29;62.53;100416.04;1628201;86;20530;-78
2022/09/25 13:44:32;;;;;;;;;;;;;;;16.29;62.55;100411.28;1644324;86;20194;-78
2022/09/25 13:47:32;;;;;;;;;;;;;;;16.30;62.58;100416.43;1631056;86;20252;-78
2022/09/25 13:50:20;;;;;;;;;;;;;;;16.33;62.51;100413.69;1638041;86;20206;-79
2022/09/25 13:53:19;;;;;;;;;;;;;;;16.35;62.52;100413.63;1635611;86;20227;-79
2022/09/25 13:56:07;;;;;;;;;;;;;;;16.39;62.10;100409.97;1638928;86;20179;-79
2022/09/25 13:59:01;;;;;;;;;;;;;;;16.41;62.17;100407.69;1643751;86;20185;-79
2022/09/25 14:01:52;;;;;;;;;;;;;;;16.43;62.21;100407.16;1632949;86;20165;-79
2022/09/25 14:04:38;;;;;;;;;;;;;;;16.44;62.15;100401.48;1640541;86;20181;-79
2022/09/25 14:07:24;;;;;;;;;;;;;;;16.42;61.98;100400.25;1635721;86;20668;-79
2022/09/25 14:10:09;;;;;;;;;;;;;;;16.40;61.94;100398.16;1636499;86;20216;-79
2022/09/25 14:12:54;;;;;;;;;;;;;;;16.39;61.90;100395.62;1640090;86;20252;-79
2022/09/25 14:15:41;;;;;;;;;;;;;;;16.38;60.40;100392.16;1639209;85;20228;-79
2022/09/25 14:18:39;;;;;;;;;;;;;;;16.38;61.72;100390.01;1652546;85;20221;-79
2022/09/25 14:21:28;;;;;;;;;;;;;;;16.33;61.59;100382.38;1651903;85;20533;-79
2022/09/25 14:24:19;;;;;;;;;;;;;;;16.30;61.68;100383.81;1651984;85;20516;-79
2022/09/25 14:27:07;;;;;;;;;;;;;;;16.28;61.66;100379.58;1651521;85;20655;-79
2022/09/25 14:29:52;;;;;;;;;;;;;;;16.25;61.64;100381.86;1648736;85;20516;-79
2022/09/25 14:32:59;;;;;;;;;;;;;;;16.22;61.49;100378.92;1634893;85;20355;-79
2022/09/25 14:35:50;;;;;;;;;;;;;;;16.21;61.60;100373.31;1649023;85;20170;-79
2022/09/25 14:38:50;;;;;;;;;;;;;;;16.22;61.63;100378.92;1651408;85;20264;-79
2022/09/25 14:41:47;;;;;;;;;;;;;;;16.20;61.63;100372.08;1648090;85;20624;-78
2022/09/25 14:45:05;;;;;;;;;;;;;;;16.16;61.55;100367.45;1650493;85;20493;-78
2022/09/25 14:47:51;;;;;;;;;;;;;;;16.13;61.57;100365.42;1644435;85;20190;-78
2022/09/25 14:50:40;;;;;;;;;;;;;;;16.10;61.51;100361.22;1654083;83;20187;-78
2022/09/25 14:53:27;;;;;;;;;;;;;;;16.09;61.52;100358.68;1645364;85;20201;-78